createdAt,value
2019-04-16T00:01:22.225Z,8.57
2019-04-16T00:03:58.982Z,9.40
2019-04-16T00:06:30.090Z,8.33
2019-04-16T00:09:01.197Z,6.77
2019-04-16T00:11:44.321Z,10.00
2019-04-16T00:14:18.353Z,12.17
2019-04-16T00:16:47.893Z,7.87
2019-04-16T00:19:17.362Z,10.83
2019-04-16T00:21:57.251Z,9.67
2019-04-16T00:24:28.369Z,9.10
2019-04-16T00:26:59.366Z,11.30
2019-04-16T00:29:32.690Z,8.67
2019-04-16T00:32:01.057Z,7.03
2019-04-16T00:34:30.525Z,10.27
2019-04-16T00:37:00.005Z,8.43
2019-04-16T00:39:29.465Z,9.17
2019-04-16T00:41:59.103Z,7.67
2019-04-16T00:44:28.580Z,12.73
2019-04-16T00:46:58.049Z,12.17
2019-04-16T00:49:27.533Z,7.43
2019-04-16T00:51:57.001Z,14.90
2019-04-16T00:54:26.483Z,12.43
2019-04-16T00:56:56.113Z,10.13
2019-04-16T00:59:25.570Z,10.07
2019-04-16T01:01:55.033Z,10.07
2019-04-16T01:04:24.507Z,9.57
2019-04-16T01:06:53.969Z,8.73
2019-04-16T01:09:23.510Z,10.50
2019-04-16T01:11:53.053Z,8.10
2019-04-16T01:14:24.250Z,12.50
2019-04-16T01:16:53.833Z,10.53
2019-04-16T01:19:23.305Z,10.07
2019-04-16T01:21:52.778Z,9.57
2019-04-16T01:24:22.245Z,10.30
2019-04-16T01:26:51.713Z,9.60
2019-04-16T01:29:21.183Z,11.43
2019-04-16T01:31:58.237Z,11.07
2019-04-16T01:34:37.997Z,8.67
2019-04-16T01:37:12.021Z,10.67
2019-04-16T01:39:47.436Z,10.37
2019-04-16T01:42:14.305Z,10.27
2019-04-16T01:44:43.777Z,11.60
2019-04-16T01:47:13.249Z,9.77
2019-04-16T01:49:42.737Z,10.13
2019-04-16T01:52:12.193Z,7.60
2019-04-16T01:54:41.825Z,8.77
2019-04-16T01:57:11.297Z,8.70
2019-04-16T01:59:40.761Z,8.73
2019-04-16T02:02:14.606Z,10.03
2019-04-16T02:04:41.417Z,10.30
2019-04-16T02:07:10.954Z,9.47
2019-04-16T02:09:40.493Z,9.23
2019-04-16T02:12:12.800Z,9.00
2019-04-16T02:14:41.472Z,9.17
2019-04-16T02:17:11.005Z,10.73
2019-04-16T02:19:40.478Z,9.13
2019-04-16T02:22:13.884Z,11.00
2019-04-16T02:24:41.747Z,9.93
2019-04-16T02:27:11.285Z,10.13
2019-04-16T02:29:40.847Z,8.80
2019-04-16T02:32:10.317Z,10.53
2019-04-16T02:34:39.804Z,11.23
2019-04-16T02:37:09.276Z,10.90
2019-04-16T02:39:53.099Z,9.33
2019-04-16T02:42:09.966Z,9.30
2019-04-16T02:44:39.422Z,9.70
2019-04-16T02:47:09.200Z,14.13
2019-04-16T02:49:38.749Z,9.50
2019-04-16T02:52:18.637Z,12.63
2019-04-16T02:54:49.827Z,10.57
2019-04-16T02:57:33.121Z,10.80
2019-04-16T03:00:04.474Z,10.33
2019-04-16T03:02:38.100Z,11.40
2019-04-16T03:05:11.992Z,11.90
2019-04-16T03:07:41.462Z,12.50
2019-04-16T03:10:13.061Z,9.83
2019-04-16T03:12:42.289Z,13.80
2019-04-16T03:15:12.645Z,10.80
2019-04-16T03:17:46.080Z,12.47
2019-04-16T03:20:20.947Z,12.47
2019-04-16T03:22:51.205Z,9.87
2019-04-16T03:25:20.733Z,12.20
2019-04-16T03:27:51.445Z,10.37
2019-04-16T03:30:21.390Z,10.40
2019-04-16T03:32:51.458Z,10.23
2019-04-16T03:35:25.466Z,10.27
2019-04-16T03:37:52.153Z,11.77
2019-04-16T03:40:24.759Z,10.23
2019-04-16T03:42:52.861Z,9.10
2019-04-16T03:45:22.329Z,8.83
2019-04-16T03:47:52.361Z,9.30
2019-04-16T03:50:21.975Z,9.97
2019-04-16T03:52:51.481Z,15.27
2019-04-16T03:55:25.036Z,12.17
2019-04-16T03:57:52.136Z,10.47
2019-04-16T04:00:21.665Z,10.10
2019-04-16T04:02:53.890Z,12.73
2019-04-16T04:05:22.298Z,11.83
2019-04-16T04:07:54.992Z,11.00
2019-04-16T04:10:30.244Z,11.37
2019-04-16T04:12:54.242Z,8.77
2019-04-16T04:15:26.318Z,12.60
2019-04-16T04:17:54.963Z,10.90
2019-04-16T04:20:24.504Z,11.30
2019-04-16T04:22:56.784Z,9.03
2019-04-16T04:25:25.218Z,14.60
2019-04-16T04:27:54.953Z,12.90
2019-04-16T04:30:25.669Z,13.33
2019-04-16T04:32:56.462Z,11.53
2019-04-16T04:35:25.934Z,10.77
2019-04-16T04:37:55.473Z,12.13
2019-04-16T04:40:45.188Z,8.17
2019-04-16T04:43:15.453Z,11.93
2019-04-16T04:45:44.946Z,12.93
2019-04-16T04:48:14.402Z,9.87
2019-04-16T04:50:43.873Z,12.30
2019-04-16T04:53:15.625Z,11.23
2019-04-16T04:55:44.520Z,10.90
2019-04-16T04:58:13.981Z,13.93
2019-04-16T05:00:43.457Z,11.20
2019-04-16T05:03:30.637Z,11.87
2019-04-16T05:06:04.661Z,18.77
2019-04-16T05:08:34.133Z,10.63
2019-04-16T05:11:03.697Z,11.07
2019-04-16T05:13:33.173Z,10.03
2019-04-16T05:16:02.833Z,10.47
2019-04-16T05:18:32.289Z,8.77
2019-04-16T05:21:01.753Z,13.17
2019-04-16T05:23:31.229Z,14.23
2019-04-16T05:26:04.490Z,11.50
2019-04-16T05:28:31.881Z,10.63
2019-04-16T05:31:01.352Z,7.87
2019-04-16T05:33:30.817Z,8.00
2019-04-16T05:36:00.294Z,9.80
2019-04-16T05:38:29.754Z,9.43
2019-04-16T05:41:12.218Z,7.43
2019-04-16T05:43:30.962Z,10.10
2019-04-16T05:46:00.537Z,8.83
2019-04-16T05:48:30.017Z,10.27
2019-04-16T05:50:59.918Z,12.83
2019-04-16T05:53:30.237Z,13.83
2019-04-16T05:56:20.247Z,11.17
2019-04-16T05:58:50.269Z,8.27
2019-04-16T06:01:21.373Z,8.93
2019-04-16T06:03:53.638Z,12.57
2019-04-16T06:06:22.016Z,12.10
2019-04-16T06:08:51.500Z,11.83
2019-04-16T06:11:29.438Z,14.53
2019-04-16T06:13:56.733Z,9.00
2019-04-16T06:16:30.806Z,12.33
2019-04-16T06:19:12.240Z,11.93
2019-04-16T06:21:48.921Z,9.93
2019-04-16T06:24:36.081Z,9.07
2019-04-16T06:27:23.601Z,8.67
2019-04-16T06:29:57.601Z,12.17
2019-04-16T06:32:33.441Z,23.80
2019-04-16T06:35:22.281Z,47.70
2019-04-16T06:38:08.477Z,28.70
2019-04-16T06:40:39.263Z,12.53
2019-04-16T06:43:27.397Z,32.07
2019-04-16T06:46:05.451Z,10.70
2019-04-16T06:48:42.447Z,9.83
2019-04-16T06:51:31.853Z,9.47
2019-04-16T06:54:11.809Z,16.57
2019-04-16T06:56:51.953Z,9.97
2019-04-16T06:59:29.330Z,7.23
2019-04-16T07:02:01.841Z,11.60
2019-04-16T07:04:42.417Z,10.80
2019-04-16T07:07:21.809Z,11.77
2019-04-16T07:09:56.702Z,14.67
2019-04-16T07:12:23.506Z,20.50
2019-04-16T07:14:53.093Z,20.33
2019-04-16T07:17:22.639Z,13.17
2019-04-16T07:19:52.109Z,28.60
2019-04-16T07:22:22.244Z,8.53
2019-04-16T07:24:53.590Z,9.53
2019-04-16T07:27:23.142Z,9.43
2019-04-16T07:29:56.780Z,12.07
2019-04-16T07:32:27.985Z,7.47
2019-04-16T07:34:59.078Z,7.23
2019-04-16T07:37:42.018Z,6.27
2019-04-16T07:40:29.741Z,8.47
2019-04-16T07:43:03.811Z,7.60
2019-04-16T07:45:43.778Z,7.53
2019-04-16T07:48:14.885Z,7.60
2019-04-16T07:50:46.009Z,7.87
2019-04-16T07:53:33.202Z,8.77
2019-04-16T07:56:07.294Z,7.70
2019-04-16T07:58:36.757Z,25.70
2019-04-16T08:01:11.341Z,10.77
2019-04-16T08:03:37.686Z,20.80
2019-04-16T08:06:07.309Z,18.47
2019-04-16T08:08:36.785Z,7.00
2019-04-16T08:11:06.325Z,9.17
2019-04-16T08:13:37.523Z,8.90
2019-04-16T08:16:07.157Z,10.30
2019-04-16T08:18:38.351Z,11.07
2019-04-16T08:21:12.095Z,15.13
2019-04-16T08:23:42.022Z,10.37
2019-04-16T08:26:13.638Z,12.43
2019-04-16T08:28:42.817Z,20.67
2019-04-16T08:31:14.009Z,9.73
2019-04-16T08:33:43.325Z,12.20
2019-04-16T08:36:12.514Z,14.17
2019-04-16T08:38:42.055Z,12.87
2019-04-16T08:41:13.249Z,14.27
2019-04-16T08:43:43.069Z,8.33
2019-04-16T08:46:12.610Z,9.13
2019-04-16T08:48:42.153Z,11.90
2019-04-16T08:51:11.674Z,8.93
2019-04-16T08:53:43.779Z,19.33
2019-04-16T08:56:12.449Z,9.27
2019-04-16T08:58:42.091Z,9.00
2019-04-16T09:01:15.433Z,9.23
2019-04-16T09:03:44.518Z,11.97
2019-04-16T09:06:14.297Z,11.37
2019-04-16T09:09:11.542Z,16.03
2019-04-16T09:11:35.339Z,8.57
2019-04-16T09:14:06.497Z,10.97
2019-04-16T09:16:43.491Z,8.50
2019-04-16T09:19:15.933Z,8.87
2019-04-16T09:21:45.411Z,10.10
2019-04-16T09:24:22.282Z,7.90
2019-04-16T09:26:56.494Z,7.13
2019-04-16T09:29:27.681Z,7.80
2019-04-16T09:32:04.409Z,9.20
2019-04-16T09:34:39.190Z,9.53
2019-04-16T09:37:20.022Z,11.13
2019-04-16T09:40:16.598Z,11.53
2019-04-16T09:42:37.390Z,11.53
2019-04-16T09:45:09.960Z,8.33
2019-04-16T09:47:39.446Z,8.77
2019-04-16T09:50:11.077Z,9.53
2019-04-16T09:52:40.562Z,9.97
2019-04-16T09:55:10.037Z,11.63
2019-04-16T09:57:40.485Z,11.67
2019-04-16T10:00:16.828Z,8.73
2019-04-16T10:02:45.664Z,10.20
2019-04-16T10:05:15.493Z,9.13
2019-04-16T10:07:44.969Z,10.43
2019-04-16T10:10:14.442Z,8.77
2019-04-16T10:12:43.934Z,13.00
2019-04-16T10:15:14.533Z,8.93
2019-04-16T10:17:44.015Z,10.00
2019-04-16T10:20:13.585Z,11.87
2019-04-16T10:22:43.045Z,11.43
2019-04-16T10:25:13.994Z,9.20
2019-04-16T10:27:45.118Z,11.70
2019-04-16T10:30:19.589Z,8.73
2019-04-16T10:32:49.126Z,10.60
2019-04-16T10:35:23.630Z,15.33
2019-04-16T10:37:53.132Z,23.00
2019-04-16T10:40:33.515Z,16.70
2019-04-16T10:43:19.978Z,16.60
2019-04-16T10:45:51.102Z,21.03
2019-04-16T10:48:24.726Z,10.07
2019-04-16T10:51:01.632Z,15.93
2019-04-16T10:54:00.783Z,14.17
2019-04-16T10:56:47.831Z,27.57
2019-04-16T10:59:19.066Z,16.73
2019-04-16T11:01:56.333Z,14.97
2019-04-16T11:04:36.033Z,10.33
2019-04-16T11:07:07.219Z,9.87
2019-04-16T11:09:36.742Z,10.97
2019-04-16T11:12:06.455Z,9.77
2019-04-16T11:14:36.129Z,12.67
2019-04-16T11:17:05.915Z,14.30
2019-04-16T11:19:35.504Z,17.83
2019-04-16T11:22:05.681Z,10.13
2019-04-16T11:24:35.208Z,11.03
2019-04-16T11:27:04.754Z,17.50
2019-04-16T11:29:34.326Z,9.40
2019-04-16T11:32:03.925Z,13.40
2019-04-16T11:34:33.566Z,9.90
2019-04-16T11:37:07.259Z,11.10
2019-04-16T11:39:34.410Z,10.93
2019-04-16T11:42:04.094Z,11.47
2019-04-16T11:44:33.690Z,13.33
2019-04-16T11:47:04.830Z,11.97
2019-04-16T11:49:34.319Z,15.47
2019-04-16T11:52:03.997Z,9.27
2019-04-16T11:54:33.513Z,9.70
2019-04-16T11:57:03.066Z,10.07
2019-04-16T11:59:33.054Z,14.27
2019-04-16T12:02:06.769Z,15.93
2019-04-16T12:04:43.578Z,11.03
2019-04-16T12:07:20.470Z,11.47
2019-04-16T12:10:07.825Z,8.23
2019-04-16T12:12:54.025Z,8.57
2019-04-16T12:15:31.080Z,11.90
2019-04-16T12:18:11.059Z,13.60
2019-04-16T12:20:45.058Z,11.03
2019-04-16T12:23:22.003Z,15.53
2019-04-16T12:25:53.127Z,15.93
2019-04-16T12:28:43.221Z,19.77
2019-04-16T12:31:16.277Z,15.30
2019-04-16T12:33:48.809Z,26.80
2019-04-16T12:36:35.477Z,18.77
2019-04-16T12:39:24.985Z,12.93
2019-04-16T12:42:11.422Z,10.93
2019-04-16T12:44:57.606Z,9.97
2019-04-16T12:47:28.758Z,14.23
2019-04-16T12:49:59.906Z,9.97
2019-04-16T12:52:45.870Z,10.70
2019-04-16T12:55:25.705Z,9.27
2019-04-16T12:58:08.677Z,10.47
2019-04-16T13:00:39.961Z,12.57
2019-04-16T13:03:29.257Z,10.73
2019-04-16T13:06:16.901Z,11.07
2019-04-16T13:08:48.185Z,10.27
2019-04-16T13:11:19.303Z,10.87
2019-04-16T13:14:02.053Z,10.57
2019-04-16T13:16:48.073Z,7.83
2019-04-16T13:19:34.031Z,9.83
2019-04-16T13:22:05.247Z,9.50
2019-04-16T13:24:42.071Z,8.90
2019-04-16T13:27:15.889Z,9.77
2019-04-16T13:29:45.949Z,13.60
2019-04-16T13:32:15.499Z,10.23
2019-04-16T13:34:45.121Z,11.03
2019-04-16T13:37:14.593Z,10.67
2019-04-16T13:39:48.721Z,10.37
2019-04-16T13:42:18.274Z,14.60
2019-04-16T13:44:55.225Z,12.03
2019-04-16T13:47:24.709Z,16.87
2019-04-16T13:49:55.824Z,12.70
2019-04-16T13:52:25.636Z,14.30
2019-04-16T13:54:59.469Z,11.47
2019-04-16T13:57:30.585Z,11.43
2019-04-16T14:00:07.729Z,13.63
2019-04-16T14:02:38.909Z,22.60
2019-04-16T14:05:10.973Z,10.67
2019-04-16T14:07:40.230Z,7.27
2019-04-16T14:10:10.122Z,19.23
2019-04-16T14:12:42.834Z,12.70
2019-04-16T14:15:11.854Z,10.40
2019-04-16T14:17:52.403Z,10.03
2019-04-16T14:20:13.886Z,8.47
2019-04-16T14:22:43.789Z,7.43
2019-04-16T14:25:13.777Z,7.97
2019-04-16T14:27:43.252Z,8.20
2019-04-16T14:30:16.037Z,9.63
2019-04-16T14:32:45.509Z,6.57
2019-04-16T14:35:31.979Z,7.27
2019-04-16T14:37:47.934Z,9.73
2019-04-16T14:40:21.673Z,6.77
2019-04-16T14:42:56.273Z,6.83
2019-04-16T14:45:27.658Z,6.37
2019-04-16T14:47:57.130Z,7.33
2019-04-16T14:50:26.769Z,8.30
2019-04-16T14:52:56.245Z,9.17
2019-04-16T14:55:58.758Z,6.17
2019-04-16T14:58:22.065Z,6.83
2019-04-16T15:00:53.245Z,8.13
2019-04-16T15:03:36.509Z,8.47
2019-04-16T15:06:10.306Z,7.83
2019-04-16T15:08:50.601Z,9.67
2019-04-16T15:11:39.761Z,6.60
2019-04-16T15:14:11.053Z,6.80
2019-04-16T15:16:42.401Z,4.90
2019-04-16T15:19:16.213Z,7.07
2019-04-16T15:22:04.015Z,6.60
2019-04-16T15:24:35.194Z,7.00
2019-04-16T15:27:12.261Z,8.47
2019-04-16T15:29:43.381Z,8.67
2019-04-16T15:32:14.561Z,7.57
2019-04-16T15:34:45.681Z,6.50
2019-04-16T15:37:26.668Z,6.90
2019-04-16T15:39:59.831Z,4.33
2019-04-16T15:42:30.797Z,8.63
2019-04-16T15:45:08.449Z,7.10
2019-04-16T15:47:46.982Z,7.07
2019-04-16T15:50:18.173Z,6.93
2019-04-16T15:52:49.350Z,6.53
2019-04-16T15:55:36.733Z,6.50
2019-04-16T15:58:13.509Z,8.47
2019-04-16T16:00:56.892Z,7.93
2019-04-16T16:03:28.121Z,11.50
2019-04-16T16:05:59.309Z,7.57
2019-04-16T16:08:46.429Z,7.73
2019-04-16T16:11:20.505Z,6.47
2019-04-16T16:13:50.029Z,10.37
2019-04-16T16:16:19.641Z,8.93
2019-04-16T16:18:49.137Z,13.97
2019-04-16T16:21:18.685Z,8.70
2019-04-16T16:23:48.157Z,8.10
2019-04-16T16:26:17.700Z,6.90
2019-04-16T16:28:47.174Z,7.97
2019-04-16T16:31:16.713Z,7.50
2019-04-16T16:33:46.292Z,9.47
2019-04-16T16:36:15.753Z,7.33
2019-04-16T16:38:48.347Z,7.27
2019-04-16T16:41:16.470Z,6.97
2019-04-16T16:43:45.945Z,8.83
2019-04-16T16:46:57.291Z,8.67
2019-04-16T16:49:22.959Z,6.87
2019-04-16T16:52:12.438Z,5.53
2019-04-16T16:54:43.553Z,7.73
2019-04-16T16:57:17.725Z,7.50
2019-04-16T16:59:51.677Z,8.93
2019-04-16T17:02:22.789Z,7.90
2019-04-16T17:04:56.677Z,9.30
2019-04-16T17:07:26.146Z,8.33
2019-04-16T17:09:55.693Z,7.60
2019-04-16T17:12:25.249Z,6.50
2019-04-16T17:14:54.793Z,6.80
2019-04-16T17:17:24.433Z,7.13
2019-04-16T17:19:54.182Z,6.50
2019-04-16T17:22:23.717Z,7.43
2019-04-16T17:24:53.270Z,9.00
2019-04-16T17:27:22.913Z,9.63
2019-04-16T17:29:52.470Z,8.53
2019-04-16T17:32:22.442Z,10.80
2019-04-16T17:34:51.930Z,7.80
2019-04-16T17:37:27.678Z,6.53
2019-04-16T17:39:57.144Z,7.43
2019-04-16T17:42:28.478Z,9.27
2019-04-16T17:45:05.062Z,15.30
2019-04-16T17:47:55.693Z,8.27
2019-04-16T17:50:39.270Z,12.33
2019-04-16T17:53:15.802Z,11.23
2019-04-16T17:56:02.098Z,14.40
2019-04-16T17:58:36.320Z,21.97
2019-04-16T18:01:15.086Z,21.47
2019-04-16T18:04:01.492Z,69.83
2019-04-16T18:06:32.747Z,104.87
2019-04-16T18:09:22.279Z,85.57
2019-04-16T18:12:09.819Z,95.37
2019-04-16T18:14:41.058Z,70.50
2019-04-16T18:17:15.193Z,77.60
2019-04-16T18:19:46.880Z,112.80
2019-04-16T18:22:18.081Z,113.27
2019-04-16T18:24:55.481Z,96.07
2019-04-16T18:27:41.995Z,42.93
2019-04-16T18:30:29.688Z,18.27
2019-04-16T18:33:05.664Z,13.40
2019-04-16T18:35:33.692Z,18.67
2019-04-16T18:38:22.219Z,15.37
2019-04-16T18:41:03.568Z,16.63
2019-04-16T18:43:48.557Z,12.40
2019-04-16T18:46:19.693Z,15.97
2019-04-16T18:48:54.419Z,14.17
2019-04-16T18:51:24.011Z,9.53
2019-04-16T18:53:53.743Z,12.00
2019-04-16T18:56:23.294Z,11.73
2019-04-16T18:58:52.901Z,12.37
2019-04-16T19:01:24.962Z,11.87
2019-04-16T19:03:54.793Z,11.20
2019-04-16T19:06:29.251Z,12.10
2019-04-16T19:08:58.733Z,9.83
2019-04-16T19:11:28.274Z,8.03
2019-04-16T19:13:57.769Z,8.03
2019-04-16T19:16:27.263Z,12.30
2019-04-16T19:18:56.746Z,8.80
2019-04-16T19:21:26.227Z,7.67
2019-04-16T19:23:55.697Z,9.77
2019-04-16T19:26:25.255Z,11.17
2019-04-16T19:28:54.800Z,8.67
2019-04-16T19:31:24.500Z,11.47
2019-04-16T19:33:54.402Z,8.03
2019-04-16T19:36:27.522Z,11.60
2019-04-16T19:38:58.166Z,13.57
2019-04-16T19:41:27.882Z,10.53
2019-04-16T19:43:57.605Z,10.23
2019-04-16T19:46:26.917Z,11.80
2019-04-16T19:48:57.007Z,11.27
2019-04-16T19:51:27.238Z,8.40
2019-04-16T19:53:56.373Z,9.33
2019-04-16T19:56:25.833Z,18.27
2019-04-16T19:58:55.209Z,16.77
2019-04-16T20:01:24.402Z,16.00
2019-04-16T20:03:53.493Z,25.37
2019-04-16T20:06:25.392Z,25.07
2019-04-16T20:08:53.855Z,26.80
2019-04-16T20:11:23.074Z,20.97
2019-04-16T20:13:52.470Z,21.20
2019-04-16T20:16:21.690Z,24.10
2019-04-16T20:18:51.654Z,23.00
2019-04-16T20:21:21.165Z,12.87
2019-04-16T20:23:50.377Z,22.40
2019-04-16T20:26:24.895Z,19.73
2019-04-16T20:28:54.367Z,13.33
2019-04-16T20:31:23.541Z,16.00
2019-04-16T20:33:53.348Z,12.90
2019-04-16T20:36:23.516Z,19.20
2019-04-16T20:38:53.624Z,12.37
2019-04-16T20:41:22.952Z,18.90
2019-04-16T20:43:51.995Z,13.57
2019-04-16T20:46:21.058Z,15.27
2019-04-16T20:49:05.710Z,20.83
2019-04-16T20:51:26.201Z,12.07
2019-04-16T20:53:51.717Z,13.63
2019-04-16T20:56:21.630Z,15.40
2019-04-16T20:58:50.998Z,11.37
2019-04-16T21:01:32.940Z,7.87
2019-04-16T21:04:04.673Z,11.30
2019-04-16T21:06:28.343Z,9.90
2019-04-16T21:08:58.314Z,11.97
2019-04-16T21:11:27.862Z,14.47
2019-04-16T21:13:57.013Z,11.83
2019-04-16T21:16:26.469Z,13.77
2019-04-16T21:18:56.109Z,10.27
2019-04-16T21:21:25.325Z,10.10
2019-04-16T21:23:54.974Z,8.23
2019-04-16T21:26:24.435Z,11.03
2019-04-16T21:28:58.536Z,10.50
2019-04-16T21:31:30.741Z,11.53
2019-04-16T21:34:01.862Z,17.77
2019-04-16T21:36:33.818Z,8.43
2019-04-16T21:39:09.633Z,8.87
2019-04-16T21:41:38.702Z,15.13
2019-04-16T21:44:11.547Z,11.60
2019-04-16T21:46:38.665Z,9.73
2019-04-16T21:49:08.991Z,9.93
2019-04-16T21:51:39.925Z,12.03
2019-04-16T21:54:09.393Z,10.37
2019-04-16T21:56:39.613Z,10.20
2019-04-16T21:59:09.373Z,8.83
2019-04-16T22:01:43.185Z,11.10
2019-04-16T22:04:14.666Z,11.97
2019-04-16T22:06:43.920Z,10.27
2019-04-16T22:09:13.248Z,12.40
2019-04-16T22:11:44.278Z,9.17
2019-04-16T22:14:14.049Z,15.43
2019-04-16T22:16:43.261Z,11.97
2019-04-16T22:19:14.074Z,9.97
2019-04-16T22:21:44.221Z,11.50
2019-04-16T22:24:13.697Z,10.23
2019-04-16T22:26:42.905Z,10.40
2019-04-16T22:29:15.433Z,10.50
2019-04-16T22:31:43.577Z,9.17
2019-04-16T22:34:12.797Z,12.50
2019-04-16T22:36:51.815Z,14.13
2019-04-16T22:39:22.911Z,14.57
2019-04-16T22:42:03.173Z,12.20
2019-04-16T22:44:49.951Z,11.27
2019-04-16T22:47:33.290Z,11.97
2019-04-16T22:50:15.236Z,8.47
2019-04-16T22:52:33.697Z,11.57
2019-04-16T22:55:24.952Z,10.97
2019-04-16T22:57:54.573Z,11.50
2019-04-16T23:00:28.137Z,9.47
2019-04-16T23:02:57.186Z,12.53
2019-04-16T23:05:27.825Z,9.53
2019-04-16T23:07:57.069Z,12.00
2019-04-16T23:10:26.457Z,13.00
2019-04-16T23:13:00.136Z,13.23
2019-04-16T23:15:27.854Z,9.97
2019-04-16T23:17:56.985Z,9.70
2019-04-16T23:20:29.715Z,8.17
2019-04-16T23:22:57.601Z,11.60
2019-04-16T23:25:27.321Z,9.07
2019-04-16T23:27:57.709Z,8.10
2019-04-16T23:30:27.297Z,16.20
2019-04-16T23:32:59.947Z,10.50
2019-04-16T23:35:28.342Z,10.37
2019-04-16T23:37:59.303Z,9.67
2019-04-16T23:40:28.557Z,10.47
2019-04-16T23:42:59.829Z,11.80
2019-04-16T23:45:42.564Z,13.20
2019-04-16T23:48:16.513Z,12.47
2019-04-16T23:50:47.702Z,11.40
2019-04-16T23:53:19.081Z,18.17
2019-04-16T23:55:52.961Z,11.03
2019-04-16T23:58:40.757Z,10.20
